sensor_id;sensor_type;location;lat;lon;timestamp;temperature;humidity
78571;SHT31;67861;51.966;5.672;2023-03-01T00:02:04;3.8;45.3
78571;SHT31;67861;51.966;5.672;2023-03-01T00:04:34;3.8;45.6
78571;SHT31;67861;51.966;5.672;2023-03-01T00:07:03;3.8;45.5
78571;SHT31;67861;51.966;5.672;2023-03-01T00:09:35;3.8;45.6
78571;SHT31;67861;51.966;5.672;2023-03-01T00:12:06;3.8;45.8
78571;SHT31;67861;51.966;5.672;2023-03-01T00:14:40;3.7;45.8
78571;SHT31;67861;51.966;5.672;2023-03-01T00:17:10;3.7;45.9
78571;SHT31;67861;51.966;5.672;2023-03-01T00:19:40;3.7;45.9
78571;SHT31;67861;51.966;5.672;2023-03-01T00:22:10;3.7;46.1
78571;SHT31;67861;51.966;5.672;2023-03-01T00:24:40;3.7;46.2
78571;SHT31;67861;51.966;5.672;2023-03-01T00:27:10;3.6;46.2
78571;SHT31;67861;51.966;5.672;2023-03-01T00:29:40;3.6;46.3
78571;SHT31;67861;51.966;5.672;2023-03-01T00:32:10;3.6;46.5
78571;SHT31;67861;51.966;5.672;2023-03-01T00:34:39;3.6;46.5
78571;SHT31;67861;51.966;5.672;2023-03-01T00:37:10;3.6;46.5
78571;SHT31;67861;51.966;5.672;2023-03-01T00:39:39;3.6;46.5
78571;SHT31;67861;51.966;5.672;2023-03-01T00:42:10;3.6;46.4
78571;SHT31;67861;51.966;5.672;2023-03-01T00:44:39;3.6;46.3
78571;SHT31;67861;51.966;5.672;2023-03-01T00:47:09;3.6;46.5
78571;SHT31;67861;51.966;5.672;2023-03-01T00:49:40;3.6;46.4
78571;SHT31;67861;51.966;5.672;2023-03-01T00:52:10;3.6;46.5
78571;SHT31;67861;51.966;5.672;2023-03-01T00:54:39;3.6;46.6
78571;SHT31;67861;51.966;5.672;2023-03-01T00:57:10;3.6;46.7
78571;SHT31;67861;51.966;5.672;2023-03-01T00:59:40;3.6;46.5
78571;SHT31;67861;51.966;5.672;2023-03-01T01:02:09;3.6;46.5
78571;SHT31;67861;51.966;5.672;2023-03-01T01:04:39;3.6;46.5
78571;SHT31;67861;51.966;5.672;2023-03-01T01:07:11;3.6;46.3
78571;SHT31;67861;51.966;5.672;2023-03-01T01:09:41;3.6;46.3
78571;SHT31;67861;51.966;5.672;2023-03-01T01:12:11;3.6;46.2
78571;SHT31;67861;51.966;5.672;2023-03-01T01:14:42;3.6;46.3
78571;SHT31;67861;51.966;5.672;2023-03-01T01:17:12;3.6;46.3
78571;SHT31;67861;51.966;5.672;2023-03-01T01:19:42;3.6;46.3
78571;SHT31;67861;51.966;5.672;2023-03-01T01:22:12;3.6;46.4
78571;SHT31;67861;51.966;5.672;2023-03-01T01:24:42;3.6;46.4
78571;SHT31;67861;51.966;5.672;2023-03-01T01:27:12;3.6;46.2
78571;SHT31;67861;51.966;5.672;2023-03-01T01:29:42;3.6;46.3
78571;SHT31;67861;51.966;5.672;2023-03-01T01:32:12;3.6;46.4
78571;SHT31;67861;51.966;5.672;2023-03-01T01:34:42;3.6;46.4
78571;SHT31;67861;51.966;5.672;2023-03-01T01:37:14;3.6;46.5
78571;SHT31;67861;51.966;5.672;2023-03-01T01:39:43;3.6;46.5
78571;SHT31;67861;51.966;5.672;2023-03-01T01:42:16;3.6;46.4
78571;SHT31;67861;51.966;5.672;2023-03-01T01:44:47;3.6;46.5
78571;SHT31;67861;51.966;5.672;2023-03-01T01:47:22;3.6;46.5
78571;SHT31;67861;51.966;5.672;2023-03-01T01:49:57;3.6;46.4
78571;SHT31;67861;51.966;5.672;2023-03-01T01:52:31;3.6;46.5
78571;SHT31;67861;51.966;5.672;2023-03-01T01:55:07;3.6;46.6
78571;SHT31;67861;51.966;5.672;2023-03-01T01:57:43;3.6;46.8
78571;SHT31;67861;51.966;5.672;2023-03-01T02:00:22;3.6;46.7
78571;SHT31;67861;51.966;5.672;2023-03-01T02:02:56;3.6;46.8
78571;SHT31;67861;51.966;5.672;2023-03-01T02:05:34;3.6;46.9
78571;SHT31;67861;51.966;5.672;2023-03-01T02:08:08;3.5;47.1
78571;SHT31;67861;51.966;5.672;2023-03-01T02:10:40;3.5;47.1
78571;SHT31;67861;51.966;5.672;2023-03-01T02:13:10;3.5;47.2
78571;SHT31;67861;51.966;5.672;2023-03-01T02:15:43;3.5;47.2
78571;SHT31;67861;51.966;5.672;2023-03-01T02:18:17;3.5;47.2
78571;SHT31;67861;51.966;5.672;2023-03-01T02:21:01;3.5;47.2
78571;SHT31;67861;51.966;5.672;2023-03-01T02:23:36;3.5;47.1
78571;SHT31;67861;51.966;5.672;2023-03-01T02:26:10;3.5;47.1
78571;SHT31;67861;51.966;5.672;2023-03-01T02:28:43;3.5;47.3
78571;SHT31;67861;51.966;5.672;2023-03-01T02:31:18;3.4;47.0
78571;SHT31;67861;51.966;5.672;2023-03-01T02:34:10;3.4;46.9
78571;SHT31;67861;51.966;5.672;2023-03-01T02:36:48;3.4;46.7
78571;SHT31;67861;51.966;5.672;2023-03-01T02:39:23;3.4;46.7
78571;SHT31;67861;51.966;5.672;2023-03-01T02:41:56;3.4;46.6
78571;SHT31;67861;51.966;5.672;2023-03-01T02:44:27;3.4;46.8
78571;SHT31;67861;51.966;5.672;2023-03-01T02:47:02;3.4;46.8
78571;SHT31;67861;51.966;5.672;2023-03-01T02:49:35;3.4;46.7
78571;SHT31;67861;51.966;5.672;2023-03-01T02:52:23;3.4;46.6
78571;SHT31;67861;51.966;5.672;2023-03-01T02:55:01;3.4;46.8
78571;SHT31;67861;51.966;5.672;2023-03-01T02:57:35;3.4;46.7
78571;SHT31;67861;51.966;5.672;2023-03-01T03:00:12;3.4;46.6
78571;SHT31;67861;51.966;5.672;2023-03-01T03:02:48;3.5;46.7
78571;SHT31;67861;51.966;5.672;2023-03-01T03:05:21;3.5;46.6
78571;SHT31;67861;51.966;5.672;2023-03-01T03:07:51;3.5;46.6
78571;SHT31;67861;51.966;5.672;2023-03-01T03:10:23;3.5;46.6
78571;SHT31;67861;51.966;5.672;2023-03-01T03:12:58;3.5;46.5
78571;SHT31;67861;51.966;5.672;2023-03-01T03:15:29;3.4;46.8
78571;SHT31;67861;51.966;5.672;2023-03-01T03:17:59;3.4;47.0
78571;SHT31;67861;51.966;5.672;2023-03-01T03:20:29;3.4;46.9
78571;SHT31;67861;51.966;5.672;2023-03-01T03:23:01;3.3;46.8
78571;SHT31;67861;51.966;5.672;2023-03-01T03:25:31;3.3;47.2
78571;SHT31;67861;51.966;5.672;2023-03-01T03:28:07;3.3;47.2
78571;SHT31;67861;51.966;5.672;2023-03-01T03:30:40;3.3;47.2
78571;SHT31;67861;51.966;5.672;2023-03-01T03:33:14;3.3;47.1
78571;SHT31;67861;51.966;5.672;2023-03-01T03:35:48;3.2;47.5
78571;SHT31;67861;51.966;5.672;2023-03-01T03:38:22;3.2;47.6
78571;SHT31;67861;51.966;5.672;2023-03-01T03:41:02;3.2;47.6
78571;SHT31;67861;51.966;5.672;2023-03-01T03:43:35;3.2;47.8
78571;SHT31;67861;51.966;5.672;2023-03-01T03:46:07;3.2;47.7
78571;SHT31;67861;51.966;5.672;2023-03-01T03:48:38;3.2;47.8
78571;SHT31;67861;51.966;5.672;2023-03-01T03:51:10;3.2;47.8
78571;SHT31;67861;51.966;5.672;2023-03-01T03:53:42;3.2;47.9
78571;SHT31;67861;51.966;5.672;2023-03-01T03:56:13;3.2;47.8
78571;SHT31;67861;51.966;5.672;2023-03-01T03:58:43;3.2;47.7
78571;SHT31;67861;51.966;5.672;2023-03-01T04:01:13;3.2;48.0
78571;SHT31;67861;51.966;5.672;2023-03-01T04:03:43;3.2;47.9
78571;SHT31;67861;51.966;5.672;2023-03-01T04:06:14;3.2;47.8
78571;SHT31;67861;51.966;5.672;2023-03-01T04:08:46;3.2;47.9
78571;SHT31;67861;51.966;5.672;2023-03-01T04:11:18;3.2;47.8
78571;SHT31;67861;51.966;5.672;2023-03-01T04:13:58;3.2;47.9
78571;SHT31;67861;51.966;5.672;2023-03-01T04:16:28;3.2;47.9
78571;SHT31;67861;51.966;5.672;2023-03-01T04:18:57;3.2;48.2
78571;SHT31;67861;51.966;5.672;2023-03-01T04:21:28;3.2;48.1
78571;SHT31;67861;51.966;5.672;2023-03-01T04:23:58;3.2;48.0
78571;SHT31;67861;51.966;5.672;2023-03-01T04:26:31;3.2;48.0
78571;SHT31;67861;51.966;5.672;2023-03-01T04:29:03;3.2;48.1
78571;SHT31;67861;51.966;5.672;2023-03-01T04:31:33;3.2;48.2
78571;SHT31;67861;51.966;5.672;2023-03-01T04:34:05;3.2;48.2
78571;SHT31;67861;51.966;5.672;2023-03-01T04:36:34;3.1;48.3
78571;SHT31;67861;51.966;5.672;2023-03-01T04:39:06;3.1;48.1
78571;SHT31;67861;51.966;5.672;2023-03-01T04:41:39;3.1;48.4
78571;SHT31;67861;51.966;5.672;2023-03-01T04:44:10;3.1;48.4
78571;SHT31;67861;51.966;5.672;2023-03-01T04:46:40;3.2;48.3
78571;SHT31;67861;51.966;5.672;2023-03-01T04:49:10;3.2;48.3
78571;SHT31;67861;51.966;5.672;2023-03-01T04:51:40;3.2;48.2
78571;SHT31;67861;51.966;5.672;2023-03-01T04:54:10;3.2;48.2
78571;SHT31;67861;51.966;5.672;2023-03-01T04:56:48;3.2;48.3
78571;SHT31;67861;51.966;5.672;2023-03-01T04:59:18;3.2;48.4
78571;SHT31;67861;51.966;5.672;2023-03-01T05:01:50;3.2;48.0
78571;SHT31;67861;51.966;5.672;2023-03-01T05:04:20;3.2;48.2
78571;SHT31;67861;51.966;5.672;2023-03-01T05:06:50;3.2;48.0
78571;SHT31;67861;51.966;5.672;2023-03-01T05:09:22;3.2;48.1
78571;SHT31;67861;51.966;5.672;2023-03-01T05:11:52;3.2;48.0
78571;SHT31;67861;51.966;5.672;2023-03-01T05:14:22;3.2;48.0
78571;SHT31;67861;51.966;5.672;2023-03-01T05:16:53;3.2;48.1
78571;SHT31;67861;51.966;5.672;2023-03-01T05:19:28;3.2;48.1
78571;SHT31;67861;51.966;5.672;2023-03-01T05:21:58;3.2;47.9
78571;SHT31;67861;51.966;5.672;2023-03-01T05:24:35;3.2;48.1
78571;SHT31;67861;51.966;5.672;2023-03-01T05:27:06;3.2;48.2
78571;SHT31;67861;51.966;5.672;2023-03-01T05:29:35;3.2;48.1
78571;SHT31;67861;51.966;5.672;2023-03-01T05:32:07;3.1;48.3
78571;SHT31;67861;51.966;5.672;2023-03-01T05:34:42;3.1;48.1
78571;SHT31;67861;51.966;5.672;2023-03-01T05:37:13;3.1;48.3
78571;SHT31;67861;51.966;5.672;2023-03-01T05:39:43;3.1;48.3
78571;SHT31;67861;51.966;5.672;2023-03-01T05:42:13;3.1;48.2
78571;SHT31;67861;51.966;5.672;2023-03-01T05:44:43;3.1;48.2
78571;SHT31;67861;51.966;5.672;2023-03-01T05:47:12;3.1;48.1
78571;SHT31;67861;51.966;5.672;2023-03-01T05:49:42;3.1;48.1
78571;SHT31;67861;51.966;5.672;2023-03-01T05:52:12;3.1;48.2
78571;SHT31;67861;51.966;5.672;2023-03-01T05:54:42;3.1;48.2
78571;SHT31;67861;51.966;5.672;2023-03-01T05:57:12;3.1;48.2
78571;SHT31;67861;51.966;5.672;2023-03-01T05:59:42;3.1;48.4
78571;SHT31;67861;51.966;5.672;2023-03-01T06:02:12;3.1;48.5
78571;SHT31;67861;51.966;5.672;2023-03-01T06:04:41;3.1;48.3
78571;SHT31;67861;51.966;5.672;2023-03-01T06:07:11;3.1;48.5
78571;SHT31;67861;51.966;5.672;2023-03-01T06:09:41;3.1;48.5
78571;SHT31;67861;51.966;5.672;2023-03-01T06:12:11;3.1;48.5
78571;SHT31;67861;51.966;5.672;2023-03-01T06:14:43;3.1;48.8
78571;SHT31;67861;51.966;5.672;2023-03-01T06:17:14;3.1;49.0
78571;SHT31;67861;51.966;5.672;2023-03-01T06:19:44;3.1;48.7
78571;SHT31;67861;51.966;5.672;2023-03-01T06:22:15;3.1;48.8
78571;SHT31;67861;51.966;5.672;2023-03-01T06:24:45;3.1;48.9
78571;SHT31;67861;51.966;5.672;2023-03-01T06:27:16;3.0;48.9
78571;SHT31;67861;51.966;5.672;2023-03-01T06:29:45;3.0;49.3
78571;SHT31;67861;51.966;5.672;2023-03-01T06:32:16;3.0;49.2
78571;SHT31;67861;51.966;5.672;2023-03-01T06:34:49;3.0;49.2
78571;SHT31;67861;51.966;5.672;2023-03-01T06:37:19;3.0;49.2
78571;SHT31;67861;51.966;5.672;2023-03-01T06:39:49;3.0;49.2
78571;SHT31;67861;51.966;5.672;2023-03-01T06:42:21;3.1;49.4
78571;SHT31;67861;51.966;5.672;2023-03-01T06:44:53;3.1;49.2
78571;SHT31;67861;51.966;5.672;2023-03-01T06:47:25;3.1;49.2
78571;SHT31;67861;51.966;5.672;2023-03-01T06:49:55;3.1;49.2
78571;SHT31;67861;51.966;5.672;2023-03-01T06:52:24;3.1;49.2
78571;SHT31;67861;51.966;5.672;2023-03-01T06:54:54;3.1;49.2
78571;SHT31;67861;51.966;5.672;2023-03-01T06:57:24;3.1;49.2
78571;SHT31;67861;51.966;5.672;2023-03-01T06:59:57;3.1;49.3
78571;SHT31;67861;51.966;5.672;2023-03-01T07:02:27;3.1;49.2
78571;SHT31;67861;51.966;5.672;2023-03-01T07:04:58;3.1;49.5
78571;SHT31;67861;51.966;5.672;2023-03-01T07:07:28;3.1;49.5
78571;SHT31;67861;51.966;5.672;2023-03-01T07:09:58;3.2;49.4
78571;SHT31;67861;51.966;5.672;2023-03-01T07:12:27;3.2;49.5
78571;SHT31;67861;51.966;5.672;2023-03-01T07:14:57;3.2;49.5
78571;SHT31;67861;51.966;5.672;2023-03-01T07:17:27;3.2;49.5
78571;SHT31;67861;51.966;5.672;2023-03-01T07:19:57;3.2;49.6
78571;SHT31;67861;51.966;5.672;2023-03-01T07:22:26;3.3;49.7
78571;SHT31;67861;51.966;5.672;2023-03-01T07:24:56;3.3;49.8
78571;SHT31;67861;51.966;5.672;2023-03-01T07:27:26;3.4;49.7
78571;SHT31;67861;51.966;5.672;2023-03-01T07:29:56;3.4;49.6
78571;SHT31;67861;51.966;5.672;2023-03-01T07:32:25;3.5;49.5
78571;SHT31;67861;51.966;5.672;2023-03-01T07:34:57;3.5;49.5
78571;SHT31;67861;51.966;5.672;2023-03-01T07:37:27;3.5;49.5
78571;SHT31;67861;51.966;5.672;2023-03-01T07:39:57;3.6;49.3
78571;SHT31;67861;51.966;5.672;2023-03-01T07:42:26;3.6;49.2
78571;SHT31;67861;51.966;5.672;2023-03-01T07:44:56;3.6;49.2
78571;SHT31;67861;51.966;5.672;2023-03-01T07:47:26;3.7;49.2
78571;SHT31;67861;51.966;5.672;2023-03-01T07:49:55;3.7;49.2
78571;SHT31;67861;51.966;5.672;2023-03-01T07:52:25;3.7;48.9
78571;SHT31;67861;51.966;5.672;2023-03-01T07:54:57;3.8;49.0
78571;SHT31;67861;51.966;5.672;2023-03-01T07:57:27;3.8;49.1
78571;SHT31;67861;51.966;5.672;2023-03-01T07:59:57;3.9;49.0
78571;SHT31;67861;51.966;5.672;2023-03-01T08:02:27;3.9;48.7
78571;SHT31;67861;51.966;5.672;2023-03-01T08:04:57;4.0;48.7
78571;SHT31;67861;51.966;5.672;2023-03-01T08:07:27;4.1;48.8
78571;SHT31;67861;51.966;5.672;2023-03-01T08:09:57;4.2;48.5
78571;SHT31;67861;51.966;5.672;2023-03-01T08:12:27;4.2;48.3
78571;SHT31;67861;51.966;5.672;2023-03-01T08:14:59;4.3;48.3
78571;SHT31;67861;51.966;5.672;2023-03-01T08:17:29;4.4;48.0
78571;SHT31;67861;51.966;5.672;2023-03-01T08:19:59;4.5;47.8
78571;SHT31;67861;51.966;5.672;2023-03-01T08:22:29;4.5;47.3
78571;SHT31;67861;51.966;5.672;2023-03-01T08:24:58;4.6;47.0
78571;SHT31;67861;51.966;5.672;2023-03-01T08:27:28;4.6;47.2
78571;SHT31;67861;51.966;5.672;2023-03-01T08:29:58;4.7;47.0
78571;SHT31;67861;51.966;5.672;2023-03-01T08:32:28;4.7;47.1
78571;SHT31;67861;51.966;5.672;2023-03-01T08:35:02;4.7;46.7
78571;SHT31;67861;51.966;5.672;2023-03-01T08:37:32;4.8;46.6
78571;SHT31;67861;51.966;5.672;2023-03-01T08:40:02;4.8;46.4
78571;SHT31;67861;51.966;5.672;2023-03-01T08:42:36;4.8;46.6
78571;SHT31;67861;51.966;5.672;2023-03-01T08:45:08;4.9;46.4
78571;SHT31;67861;51.966;5.672;2023-03-01T08:47:38;4.9;46.5
78571;SHT31;67861;51.966;5.672;2023-03-01T08:50:11;5.0;46.4
78571;SHT31;67861;51.966;5.672;2023-03-01T08:52:41;5.0;46.6
78571;SHT31;67861;51.966;5.672;2023-03-01T08:55:11;5.0;46.4
78571;SHT31;67861;51.966;5.672;2023-03-01T08:57:42;5.0;46.5
78571;SHT31;67861;51.966;5.672;2023-03-01T09:00:12;5.1;46.8
78571;SHT31;67861;51.966;5.672;2023-03-01T09:02:44;5.1;46.8
78571;SHT31;67861;51.966;5.672;2023-03-01T09:05:14;5.1;46.8
78571;SHT31;67861;51.966;5.672;2023-03-01T09:07:44;5.2;47.2
78571;SHT31;67861;51.966;5.672;2023-03-01T09:10:14;5.2;46.9
78571;SHT31;67861;51.966;5.672;2023-03-01T09:12:43;5.3;46.5
78571;SHT31;67861;51.966;5.672;2023-03-01T09:15:16;5.3;47.1
78571;SHT31;67861;51.966;5.672;2023-03-01T09:17:46;5.4;47.0
78571;SHT31;67861;51.966;5.672;2023-03-01T09:20:16;5.5;46.2
78571;SHT31;67861;51.966;5.672;2023-03-01T09:22:49;5.6;46.5
78571;SHT31;67861;51.966;5.672;2023-03-01T09:25:19;5.6;46.2
78571;SHT31;67861;51.966;5.672;2023-03-01T09:27:50;5.7;46.6
78571;SHT31;67861;51.966;5.672;2023-03-01T09:30:22;5.8;46.8
78571;SHT31;67861;51.966;5.672;2023-03-01T09:32:52;5.9;46.3
78571;SHT31;67861;51.966;5.672;2023-03-01T09:35:25;6.0;46.6
78571;SHT31;67861;51.966;5.672;2023-03-01T09:37:57;6.1;45.9
78571;SHT31;67861;51.966;5.672;2023-03-01T09:40:28;6.2;45.4
78571;SHT31;67861;51.966;5.672;2023-03-01T09:43:08;6.4;45.8
78571;SHT31;67861;51.966;5.672;2023-03-01T09:45:46;6.6;43.9
78571;SHT31;67861;51.966;5.672;2023-03-01T09:48:20;6.7;44.5
78571;SHT31;67861;51.966;5.672;2023-03-01T09:50:51;6.9;43.5
78571;SHT31;67861;51.966;5.672;2023-03-01T09:53:26;7.0;43.6
78571;SHT31;67861;51.966;5.672;2023-03-01T09:56:05;7.1;41.8
78571;SHT31;67861;51.966;5.672;2023-03-01T09:58:51;7.2;42.7
78571;SHT31;67861;51.966;5.672;2023-03-01T10:01:35;7.4;42.2
78571;SHT31;67861;51.966;5.672;2023-03-01T10:04:39;7.5;41.5
78571;SHT31;67861;51.966;5.672;2023-03-01T10:07:25;7.7;40.8
78571;SHT31;67861;51.966;5.672;2023-03-01T10:09:57;7.8;39.7
78571;SHT31;67861;51.966;5.672;2023-03-01T10:12:34;7.9;40.0
78571;SHT31;67861;51.966;5.672;2023-03-01T10:15:09;8.0;39.8
78571;SHT31;67861;51.966;5.672;2023-03-01T10:17:49;8.1;39.4
78571;SHT31;67861;51.966;5.672;2023-03-01T10:20:24;8.2;38.5
78571;SHT31;67861;51.966;5.672;2023-03-01T10:22:54;8.3;38.2
78571;SHT31;67861;51.966;5.672;2023-03-01T10:25:44;8.4;38.7
78571;SHT31;67861;51.966;5.672;2023-03-01T10:28:23;8.5;37.9
78571;SHT31;67861;51.966;5.672;2023-03-01T10:30:57;8.6;38.5
78571;SHT31;67861;51.966;5.672;2023-03-01T10:33:32;8.8;38.8
78571;SHT31;67861;51.966;5.672;2023-03-01T10:36:07;8.9;38.1
78571;SHT31;67861;51.966;5.672;2023-03-01T10:38:51;9.0;37.4
78571;SHT31;67861;51.966;5.672;2023-03-01T10:41:26;9.1;38.0
78571;SHT31;67861;51.966;5.672;2023-03-01T10:43:57;9.2;37.2
78571;SHT31;67861;51.966;5.672;2023-03-01T10:46:30;9.3;37.2
78571;SHT31;67861;51.966;5.672;2023-03-01T10:49:16;9.4;36.6
78571;SHT31;67861;51.966;5.672;2023-03-01T10:51:48;9.5;35.3
78571;SHT31;67861;51.966;5.672;2023-03-01T10:54:26;9.6;35.5
78571;SHT31;67861;51.966;5.672;2023-03-01T10:56:59;9.6;35.3
78571;SHT31;67861;51.966;5.672;2023-03-01T10:59:32;9.7;35.7
78571;SHT31;67861;51.966;5.672;2023-03-01T11:02:25;9.7;34.6
78571;SHT31;67861;51.966;5.672;2023-03-01T11:05:03;9.8;33.2
78571;SHT31;67861;51.966;5.672;2023-03-01T11:07:49;9.8;32.8
78571;SHT31;67861;51.966;5.672;2023-03-01T11:10:22;9.8;34.0
78571;SHT31;67861;51.966;5.672;2023-03-01T11:12:56;9.9;33.8
78571;SHT31;67861;51.966;5.672;2023-03-01T11:15:28;9.9;32.7
78571;SHT31;67861;51.966;5.672;2023-03-01T11:17:58;9.9;32.9
78571;SHT31;67861;51.966;5.672;2023-03-01T11:20:34;10.0;33.8
78571;SHT31;67861;51.966;5.672;2023-03-01T11:23:09;10.0;33.7
78571;SHT31;67861;51.966;5.672;2023-03-01T11:25:43;10.1;33.7
78571;SHT31;67861;51.966;5.672;2023-03-01T11:28:17;10.1;32.8
78571;SHT31;67861;51.966;5.672;2023-03-01T11:30:54;10.2;32.8
78571;SHT31;67861;51.966;5.672;2023-03-01T11:33:37;10.2;33.1
78571;SHT31;67861;51.966;5.672;2023-03-01T11:36:18;10.3;32.7
78571;SHT31;67861;51.966;5.672;2023-03-01T11:38:56;10.3;33.9
78571;SHT31;67861;51.966;5.672;2023-03-01T11:41:31;10.4;33.2
78571;SHT31;67861;51.966;5.672;2023-03-01T11:44:13;10.5;32.8
78571;SHT31;67861;51.966;5.672;2023-03-01T11:46:58;10.6;32.6
78571;SHT31;67861;51.966;5.672;2023-03-01T11:49:41;10.6;32.3
78571;SHT31;67861;51.966;5.672;2023-03-01T11:52:25;10.7;32.3
78571;SHT31;67861;51.966;5.672;2023-03-01T11:55:15;10.7;32.8
78571;SHT31;67861;51.966;5.672;2023-03-01T11:58:08;10.7;34.0
78571;SHT31;67861;51.966;5.672;2023-03-01T12:00:56;10.8;32.1
78571;SHT31;67861;51.966;5.672;2023-03-01T12:03:45;10.9;32.3
78571;SHT31;67861;51.966;5.672;2023-03-01T12:06:37;10.9;32.2
78571;SHT31;67861;51.966;5.672;2023-03-01T12:09:19;11.0;33.2
78571;SHT31;67861;51.966;5.672;2023-03-01T12:12:11;11.1;31.6
78571;SHT31;67861;51.966;5.672;2023-03-01T12:14:54;11.2;31.5
78571;SHT31;67861;51.966;5.672;2023-03-01T12:17:46;11.3;31.5
78571;SHT31;67861;51.966;5.672;2023-03-01T12:20:29;11.4;31.1
78571;SHT31;67861;51.966;5.672;2023-03-01T12:23:20;11.5;30.3
78571;SHT31;67861;51.966;5.672;2023-03-01T12:26:05;11.6;30.5
78571;SHT31;67861;51.966;5.672;2023-03-01T12:29:26;11.6;29.9
78571;SHT31;67861;51.966;5.672;2023-03-01T12:32:50;11.7;29.7
78571;SHT31;67861;51.966;5.672;2023-03-01T12:35:31;11.7;30.8
78571;SHT31;67861;51.966;5.672;2023-03-01T12:38:31;11.8;30.6
78571;SHT31;67861;51.966;5.672;2023-03-01T12:41:59;11.9;31.0
78571;SHT31;67861;51.966;5.672;2023-03-01T12:44:46;12.0;29.6
78571;SHT31;67861;51.966;5.672;2023-03-01T12:47:42;12.0;30.3
78571;SHT31;67861;51.966;5.672;2023-03-01T12:50:19;12.1;30.5
78571;SHT31;67861;51.966;5.672;2023-03-01T12:52:52;12.1;29.9
78571;SHT31;67861;51.966;5.672;2023-03-01T12:55:29;12.1;29.7
78571;SHT31;67861;51.966;5.672;2023-03-01T12:58:16;12.1;29.5
78571;SHT31;67861;51.966;5.672;2023-03-01T13:01:03;12.1;29.6
78571;SHT31;67861;51.966;5.672;2023-03-01T13:03:55;12.2;30.0
78571;SHT31;67861;51.966;5.672;2023-03-01T13:06:41;12.2;29.5
78571;SHT31;67861;51.966;5.672;2023-03-01T13:09:21;12.2;30.3
78571;SHT31;67861;51.966;5.672;2023-03-01T13:11:53;12.2;29.6
78571;SHT31;67861;51.966;5.672;2023-03-01T13:16:41;12.3;29.4
78571;SHT31;67861;51.966;5.672;2023-03-01T13:19:19;12.3;30.0
78571;SHT31;67861;51.966;5.672;2023-03-01T13:21:52;12.4;29.6
78571;SHT31;67861;51.966;5.672;2023-03-01T13:24:28;12.4;29.9
78571;SHT31;67861;51.966;5.672;2023-03-01T13:27:23;12.4;30.9
78571;SHT31;67861;51.966;5.672;2023-03-01T13:29:58;12.5;29.6
78571;SHT31;67861;51.966;5.672;2023-03-01T13:32:35;12.5;30.3
78571;SHT31;67861;51.966;5.672;2023-03-01T13:38:38;12.6;29.3
78571;SHT31;67861;51.966;5.672;2023-03-01T13:41:14;12.6;30.8
78571;SHT31;67861;51.966;5.672;2023-03-01T13:43:46;12.6;30.0
78571;SHT31;67861;51.966;5.672;2023-03-01T13:46:23;12.7;29.9
78571;SHT31;67861;51.966;5.672;2023-03-01T13:48:56;12.7;29.6
78571;SHT31;67861;51.966;5.672;2023-03-01T13:51:31;12.7;30.0
78571;SHT31;67861;51.966;5.672;2023-03-01T13:54:01;12.8;29.5
78571;SHT31;67861;51.966;5.672;2023-03-01T13:56:38;12.8;29.8
78571;SHT31;67861;51.966;5.672;2023-03-01T13:59:16;12.8;29.4
78571;SHT31;67861;51.966;5.672;2023-03-01T14:01:52;12.9;28.9
78571;SHT31;67861;51.966;5.672;2023-03-01T14:04:25;12.9;29.1
78571;SHT31;67861;51.966;5.672;2023-03-01T14:07:10;12.9;28.9
78571;SHT31;67861;51.966;5.672;2023-03-01T14:09:43;12.9;29.4
78571;SHT31;67861;51.966;5.672;2023-03-01T14:12:27;13.0;28.3
78571;SHT31;67861;51.966;5.672;2023-03-01T14:15:06;13.0;29.5
78571;SHT31;67861;51.966;5.672;2023-03-01T14:18:28;12.9;28.3
78571;SHT31;67861;51.966;5.672;2023-03-01T14:21:01;12.9;29.1
78571;SHT31;67861;51.966;5.672;2023-03-01T14:23:38;12.9;29.2
78571;SHT31;67861;51.966;5.672;2023-03-01T14:26:10;12.9;29.1
78571;SHT31;67861;51.966;5.672;2023-03-01T14:28:42;12.9;28.5
78571;SHT31;67861;51.966;5.672;2023-03-01T14:32:11;13.0;28.7
78571;SHT31;67861;51.966;5.672;2023-03-01T14:34:45;13.0;28.0
78571;SHT31;67861;51.966;5.672;2023-03-01T14:37:21;13.0;28.2
78571;SHT31;67861;51.966;5.672;2023-03-01T14:39:53;13.0;28.3
78571;SHT31;67861;51.966;5.672;2023-03-01T14:42:27;12.9;28.6
78571;SHT31;67861;51.966;5.672;2023-03-01T14:45:01;12.9;29.2
78571;SHT31;67861;51.966;5.672;2023-03-01T14:47:33;12.9;29.4
78571;SHT31;67861;51.966;5.672;2023-03-01T14:50:09;12.9;29.2
78571;SHT31;67861;51.966;5.672;2023-03-01T14:52:41;13.0;28.8
78571;SHT31;67861;51.966;5.672;2023-03-01T14:55:21;13.0;29.6
78571;SHT31;67861;51.966;5.672;2023-03-01T14:57:52;13.0;28.3
78571;SHT31;67861;51.966;5.672;2023-03-01T15:00:25;13.0;28.1
78571;SHT31;67861;51.966;5.672;2023-03-01T15:02:58;13.0;27.9
78571;SHT31;67861;51.966;5.672;2023-03-01T15:05:31;13.0;28.5
78571;SHT31;67861;51.966;5.672;2023-03-01T15:08:02;13.0;28.1
78571;SHT31;67861;51.966;5.672;2023-03-01T15:10:35;13.0;28.9
78571;SHT31;67861;51.966;5.672;2023-03-01T15:13:23;13.0;28.5
78571;SHT31;67861;51.966;5.672;2023-03-01T15:16:04;13.0;28.9
78571;SHT31;67861;51.966;5.672;2023-03-01T15:18:38;13.0;28.3
78571;SHT31;67861;51.966;5.672;2023-03-01T15:21:17;13.0;27.4
78571;SHT31;67861;51.966;5.672;2023-03-01T15:23:54;13.0;28.8
78571;SHT31;67861;51.966;5.672;2023-03-01T15:26:40;13.0;28.1
78571;SHT31;67861;51.966;5.672;2023-03-01T15:29:18;13.0;27.7
78571;SHT31;67861;51.966;5.672;2023-03-01T15:31:57;12.9;28.0
78571;SHT31;67861;51.966;5.672;2023-03-01T15:34:28;12.9;27.5
78571;SHT31;67861;51.966;5.672;2023-03-01T15:37:02;12.8;28.0
78571;SHT31;67861;51.966;5.672;2023-03-01T15:39:41;12.8;27.2
78571;SHT31;67861;51.966;5.672;2023-03-01T15:42:35;12.7;28.6
78571;SHT31;67861;51.966;5.672;2023-03-01T15:44:48;12.7;27.9
78571;SHT31;67861;51.966;5.672;2023-03-01T15:47:27;12.6;28.2
78571;SHT31;67861;51.966;5.672;2023-03-01T15:49:59;12.6;27.5
78571;SHT31;67861;51.966;5.672;2023-03-01T15:52:35;12.5;27.9
78571;SHT31;67861;51.966;5.672;2023-03-01T15:55:18;12.5;28.0
78571;SHT31;67861;51.966;5.672;2023-03-01T15:58:02;12.4;28.1
78571;SHT31;67861;51.966;5.672;2023-03-01T16:00:34;12.4;28.2
78571;SHT31;67861;51.966;5.672;2023-03-01T16:03:04;12.4;28.0
78571;SHT31;67861;51.966;5.672;2023-03-01T16:05:35;12.3;28.3
78571;SHT31;67861;51.966;5.672;2023-03-01T16:08:06;12.3;29.1
78571;SHT31;67861;51.966;5.672;2023-03-01T16:10:37;12.3;28.2
78571;SHT31;67861;51.966;5.672;2023-03-01T16:13:08;12.2;28.6
78571;SHT31;67861;51.966;5.672;2023-03-01T16:15:40;12.2;28.6
78571;SHT31;67861;51.966;5.672;2023-03-01T16:18:11;12.2;28.2
78571;SHT31;67861;51.966;5.672;2023-03-01T16:20:41;12.2;28.3
78571;SHT31;67861;51.966;5.672;2023-03-01T16:23:14;12.2;28.7
78571;SHT31;67861;51.966;5.672;2023-03-01T16:25:47;12.2;28.3
78571;SHT31;67861;51.966;5.672;2023-03-01T16:28:16;12.1;27.9
78571;SHT31;67861;51.966;5.672;2023-03-01T16:30:47;12.1;27.9
78571;SHT31;67861;51.966;5.672;2023-03-01T16:33:18;12.1;27.5
78571;SHT31;67861;51.966;5.672;2023-03-01T16:35:50;12.0;27.7
78571;SHT31;67861;51.966;5.672;2023-03-01T16:38:20;12.0;27.8
78571;SHT31;67861;51.966;5.672;2023-03-01T16:40:54;11.9;27.5
78571;SHT31;67861;51.966;5.672;2023-03-01T16:43:26;11.9;27.7
78571;SHT31;67861;51.966;5.672;2023-03-01T16:45:56;11.8;27.7
78571;SHT31;67861;51.966;5.672;2023-03-01T16:48:30;11.7;28.1
78571;SHT31;67861;51.966;5.672;2023-03-01T16:51:01;11.6;28.1
78571;SHT31;67861;51.966;5.672;2023-03-01T16:53:35;11.6;28.5
78571;SHT31;67861;51.966;5.672;2023-03-01T16:56:08;11.5;28.4
78571;SHT31;67861;51.966;5.672;2023-03-01T16:58:39;11.5;28.7
78571;SHT31;67861;51.966;5.672;2023-03-01T17:01:14;11.4;28.6
78571;SHT31;67861;51.966;5.672;2023-03-01T17:03:46;11.3;28.8
78571;SHT31;67861;51.966;5.672;2023-03-01T17:06:20;11.3;29.5